Thule Air Base, Greenland
Current Conditions -  °F | °C
As of 5:54 AM on Wednesday 26 Nov 2014 (Local Time) from BGTL Reporting Station
Overcast Overcast  
Wind Chill: -8°   Ceiling: 300
Heat Index:   Visibility: 6mi
Dew Point: -2°   Wind: 5mph
Humidity: 85%   Direction: 90°E
Pressure: 29.35"   Gusts: NA
Location:  76.53°N, 68.7°W
Report Text: BGTL 260854Z AUTO 09004KT 9999 BKN003 OVC030 M17/M19 A2935 RMK AO2 CIG 003V030 BKN V FEW
Loading
Personal Weather Stations






























Interactive Weather Map New forecast layout! Learn more

10-Day Weather Forecast

Advertisements
Track Severe Weather on mobile